createdAt,value
2023-05-09T00:02:18.928Z,8.36
2023-05-09T00:04:48.142Z,8.47
2023-05-09T00:07:14.668Z,8.52
2023-05-09T00:09:41.584Z,8.52
2023-05-09T00:12:08.265Z,8.65
2023-05-09T00:14:40.690Z,8.77
2023-05-09T00:17:09.709Z,8.51
2023-05-09T00:19:39.705Z,8.40
2023-05-09T00:22:12.922Z,8.40
2023-05-09T00:24:39.893Z,8.34
2023-05-09T00:27:06.422Z,8.38
2023-05-09T00:29:35.032Z,8.53
2023-05-09T00:32:03.993Z,8.59
2023-05-09T00:34:30.548Z,8.52
2023-05-09T00:36:57.194Z,8.45
2023-05-09T00:39:26.849Z,8.53
2023-05-09T00:41:56.054Z,8.29
2023-05-09T00:44:22.467Z,8.19
2023-05-09T00:46:49.089Z,8.11
2023-05-09T00:49:15.830Z,8.01
2023-05-09T00:51:47.484Z,8.05
2023-05-09T00:54:14.268Z,8.20
2023-05-09T00:56:43.377Z,8.04
2023-05-09T00:59:10.095Z,7.85
2023-05-09T01:01:39.017Z,7.79
2023-05-09T01:04:07.871Z,7.95
2023-05-09T01:06:52.662Z,7.87
2023-05-09T01:09:32.714Z,7.80
2023-05-09T01:12:05.262Z,7.71
2023-05-09T01:15:04.444Z,7.76
2023-05-09T01:17:52.017Z,7.83
2023-05-09T01:20:36.434Z,7.70
2023-05-09T01:23:08.936Z,7.60
2023-05-09T01:25:38.502Z,7.60
2023-05-09T01:28:34.734Z,7.61
2023-05-09T01:31:03.638Z,7.56
2023-05-09T01:33:37.085Z,7.67
2023-05-09T01:36:09.666Z,7.62
2023-05-09T01:38:40.916Z,7.70
2023-05-09T01:41:11.999Z,7.45
2023-05-09T01:43:40.630Z,7.31
2023-05-09T01:46:09.117Z,7.57
2023-05-09T01:48:41.574Z,7.39
2023-05-09T01:51:10.037Z,7.52
2023-05-09T01:53:36.911Z,7.55
2023-05-09T01:56:07.887Z,7.45
2023-05-09T01:58:37.038Z,7.45
2023-05-09T02:01:08.533Z,7.43
2023-05-09T02:03:38.135Z,7.26
2023-05-09T02:06:07.743Z,7.18
2023-05-09T02:08:37.075Z,7.34
2023-05-09T02:11:07.132Z,7.20
2023-05-09T02:13:33.899Z,7.23
2023-05-09T02:16:04.558Z,7.08
2023-05-09T02:18:32.685Z,7.05
2023-05-09T02:21:01.854Z,7.05
2023-05-09T02:23:31.327Z,7.04
2023-05-09T02:26:01.274Z,7.17
2023-05-09T02:28:32.448Z,7.07
2023-05-09T02:31:03.504Z,7.09
2023-05-09T02:33:33.405Z,7.19
2023-05-09T02:36:07.031Z,7.12
2023-05-09T02:38:36.519Z,7.07
2023-05-09T02:41:05.487Z,7.16
2023-05-09T02:43:32.137Z,6.99
2023-05-09T02:46:01.032Z,7.07
2023-05-09T02:48:30.415Z,7.11
2023-05-09T02:50:58.378Z,7.04
2023-05-09T02:53:25.007Z,6.97
2023-05-09T02:55:51.700Z,6.90
2023-05-09T02:58:20.991Z,6.88
2023-05-09T03:00:47.842Z,6.92
2023-05-09T03:03:18.421Z,7.01
2023-05-09T03:05:47.516Z,6.96
2023-05-09T03:08:14.273Z,6.97
2023-05-09T03:10:40.920Z,6.97
2023-05-09T03:13:12.438Z,6.97
2023-05-09T03:15:39.223Z,6.96
2023-05-09T03:18:11.862Z,7.03
2023-05-09T03:20:42.426Z,6.97
2023-05-09T03:23:10.434Z,6.99
2023-05-09T03:25:42.267Z,6.98
2023-05-09T03:28:08.852Z,6.97
2023-05-09T03:30:35.496Z,6.97
2023-05-09T03:33:05.013Z,6.90
2023-05-09T03:35:32.281Z,6.91
2023-05-09T03:38:01.186Z,7.10
2023-05-09T03:40:30.180Z,7.28
2023-05-09T03:42:56.735Z,7.13
2023-05-09T03:45:25.874Z,7.16
2023-05-09T03:47:52.706Z,7.26
2023-05-09T03:50:21.525Z,7.15
2023-05-09T03:52:48.172Z,7.20
2023-05-09T03:55:17.219Z,7.40
2023-05-09T03:57:43.809Z,7.43
2023-05-09T04:00:13.540Z,7.42
2023-05-09T04:02:42.949Z,7.23
2023-05-09T04:05:09.664Z,7.39
2023-05-09T04:07:38.949Z,7.57
2023-05-09T04:10:08.772Z,7.60
2023-05-09T04:12:37.727Z,7.78
2023-05-09T04:15:04.713Z,7.52
2023-05-09T04:17:36.210Z,7.81
2023-05-09T04:20:03.298Z,7.91
2023-05-09T04:22:29.893Z,7.67
2023-05-09T04:24:57.268Z,7.66
2023-05-09T04:27:28.221Z,7.88
2023-05-09T04:29:55.142Z,7.97
2023-05-09T04:32:23.912Z,7.99
2023-05-09T04:34:50.574Z,7.95
2023-05-09T04:37:17.179Z,7.85
2023-05-09T04:39:44.046Z,7.91
2023-05-09T04:42:10.838Z,8.07
2023-05-09T04:44:42.734Z,8.21
2023-05-09T04:47:11.867Z,8.18
2023-05-09T04:49:40.858Z,8.34
2023-05-09T04:52:07.448Z,8.44
2023-05-09T04:54:36.973Z,8.50
2023-05-09T04:57:16.689Z,8.53
2023-05-09T04:59:44.896Z,8.58
2023-05-09T05:02:16.272Z,8.48
2023-05-09T05:04:43.045Z,8.82
2023-05-09T05:07:12.742Z,8.86
2023-05-09T05:09:41.842Z,8.95
2023-05-09T05:12:10.915Z,8.91
2023-05-09T05:14:37.524Z,9.08
2023-05-09T05:17:07.017Z,9.02
2023-05-09T05:19:38.864Z,9.10
2023-05-09T05:22:05.415Z,9.14
2023-05-09T05:24:34.543Z,9.03
2023-05-09T05:27:00.996Z,9.23
2023-05-09T05:29:27.706Z,9.35
2023-05-09T05:31:54.388Z,9.34
2023-05-09T05:34:23.709Z,9.42
2023-05-09T05:36:52.358Z,9.53
2023-05-09T05:39:19.196Z,9.33
2023-05-09T05:41:45.826Z,9.54
2023-05-09T05:44:12.366Z,9.67
2023-05-09T05:46:39.092Z,9.51
2023-05-09T05:49:05.721Z,9.40
2023-05-09T05:51:34.810Z,9.60
2023-05-09T05:54:01.288Z,9.71
2023-05-09T05:56:27.911Z,9.63
2023-05-09T05:58:57.437Z,9.89
2023-05-09T06:01:26.799Z,9.84
2023-05-09T06:03:55.962Z,10.12
2023-05-09T06:06:26.847Z,10.26
2023-05-09T06:08:56.235Z,10.33
2023-05-09T06:11:28.551Z,10.35
2023-05-09T06:13:55.186Z,10.38
2023-05-09T06:16:24.289Z,10.59
2023-05-09T06:18:51.518Z,10.70
2023-05-09T06:21:21.574Z,10.38
2023-05-09T06:24:05.859Z,10.47
2023-05-09T06:26:37.276Z,10.67
2023-05-09T06:29:06.522Z,10.69
2023-05-09T06:31:39.345Z,10.83
2023-05-09T06:34:08.388Z,11.19
2023-05-09T06:36:39.887Z,11.34
2023-05-09T06:39:06.479Z,11.42
2023-05-09T06:41:33.107Z,11.47
2023-05-09T06:43:59.796Z,11.65
2023-05-09T06:46:26.455Z,11.69
2023-05-09T06:48:53.102Z,11.65
2023-05-09T06:51:22.211Z,11.66
2023-05-09T06:53:51.117Z,11.90
2023-05-09T06:56:23.137Z,11.95
2023-05-09T07:03:08.609Z,12.62
2023-05-09T08:16:59.557Z,15.01
2023-05-09T08:19:26.419Z,14.99
2023-05-09T08:21:56.164Z,15.17
2023-05-09T08:24:26.299Z,15.44
2023-05-09T08:26:52.960Z,15.36
2023-05-09T08:29:22.268Z,15.11
2023-05-09T08:31:51.226Z,15.19
2023-05-09T08:37:16.748Z,15.23
2023-05-09T08:39:49.141Z,15.20
2023-05-09T08:42:25.606Z,15.48
2023-05-09T08:44:53.079Z,15.22
2023-05-09T08:47:21.378Z,15.40
2023-05-09T08:49:56.422Z,15.67
2023-05-09T09:07:46.152Z,15.64
2023-05-09T09:10:13.977Z,16.20
2023-05-09T09:12:42.631Z,16.35
2023-05-09T09:15:19.045Z,16.38
2023-05-09T09:17:50.912Z,16.54
2023-05-09T09:20:24.851Z,16.56
2023-05-09T09:23:04.819Z,16.79
2023-05-09T09:25:31.420Z,17.10
2023-05-09T09:28:00.041Z,16.73
2023-05-09T09:30:26.709Z,16.63
2023-05-09T09:32:58.306Z,16.69
2023-05-09T09:35:30.194Z,16.50
2023-05-09T09:38:00.261Z,16.63
2023-05-09T09:40:27.478Z,17.15
2023-05-09T09:42:54.459Z,17.65
2023-05-09T09:45:23.687Z,17.82
2023-05-09T09:47:54.756Z,17.88
2023-05-09T09:50:25.509Z,17.87
2023-05-09T09:52:54.136Z,17.84
2023-05-09T09:55:26.981Z,17.92
2023-05-09T09:57:53.736Z,17.31
2023-05-09T10:00:26.533Z,17.43
2023-05-09T10:02:54.522Z,17.40
2023-05-09T10:05:29.596Z,17.63
2023-05-09T10:07:56.787Z,17.78
2023-05-09T10:10:25.471Z,17.91
2023-05-09T10:12:56.688Z,17.99
2023-05-09T10:15:27.604Z,18.31
2023-05-09T10:17:58.238Z,18.20
2023-05-09T10:20:25.509Z,18.51
2023-05-09T10:22:59.013Z,17.84
2023-05-09T10:25:39.456Z,17.99
2023-05-09T10:28:15.556Z,17.67
2023-05-09T10:30:59.648Z,17.76
2023-05-09T10:33:37.997Z,17.73
2023-05-09T10:36:06.379Z,17.95
2023-05-09T10:38:33.481Z,18.23
2023-05-09T10:41:03.734Z,18.38
2023-05-09T10:43:32.169Z,18.63
2023-05-09T10:46:01.677Z,18.95
2023-05-09T10:48:28.850Z,19.15
2023-05-09T10:50:58.948Z,19.23
2023-05-09T10:53:40.531Z,18.92
2023-05-09T10:56:09.978Z,18.37
2023-05-09T10:58:40.895Z,18.60
2023-05-09T11:01:07.532Z,18.45
2023-05-09T11:03:54.473Z,17.64
2023-05-09T11:06:49.458Z,17.96
2023-05-09T11:09:35.885Z,18.52
2023-05-09T11:12:07.774Z,18.11
2023-05-09T11:14:47.392Z,17.77
2023-05-09T11:17:27.560Z,17.39
2023-05-09T11:20:03.512Z,17.53
2023-05-09T11:22:37.750Z,18.20
2023-05-09T11:25:14.701Z,18.43
2023-05-09T11:27:50.009Z,18.25
2023-05-09T11:30:19.076Z,18.37
2023-05-09T11:32:58.977Z,18.67
2023-05-09T11:35:28.684Z,18.60
2023-05-09T11:38:07.711Z,19.15
2023-05-09T11:40:35.586Z,19.07
2023-05-09T11:43:02.440Z,18.91
2023-05-09T11:45:33.686Z,18.93
2023-05-09T11:48:09.470Z,18.58
2023-05-09T11:50:38.586Z,18.33
2023-05-09T11:53:08.530Z,18.06
2023-05-09T11:55:38.074Z,18.18
2023-05-09T11:58:09.854Z,17.79
2023-05-09T12:00:43.673Z,17.75
2023-05-09T12:03:12.836Z,17.96
2023-05-09T12:05:42.790Z,17.97
2023-05-09T12:08:13.562Z,17.94
2023-05-09T12:10:42.420Z,18.08
2023-05-09T12:13:10.353Z,18.36
2023-05-09T12:15:40.054Z,17.85
2023-05-09T12:18:10.614Z,17.66
2023-05-09T12:20:50.224Z,17.51
2023-05-09T12:23:21.631Z,17.45
2023-05-09T12:25:55.395Z,17.38
2023-05-09T12:28:24.099Z,17.25
2023-05-09T12:30:56.414Z,17.40
2023-05-09T12:33:25.866Z,17.25
2023-05-09T12:36:03.582Z,17.52
2023-05-09T12:38:32.985Z,17.74
2023-05-09T12:41:18.805Z,18.16
2023-05-09T12:43:57.074Z,18.51
2023-05-09T12:46:24.450Z,18.77
2023-05-09T12:48:53.383Z,18.61
2023-05-09T12:51:22.783Z,18.21
2023-05-09T12:53:54.564Z,17.94
2023-05-09T12:56:28.213Z,17.85
2023-05-09T12:59:02.566Z,17.67
2023-05-09T13:01:32.011Z,17.70
2023-05-09T13:04:06.246Z,17.56
2023-05-09T13:06:36.421Z,18.08
2023-05-09T13:09:06.177Z,18.11
2023-05-09T13:11:37.894Z,18.02
2023-05-09T13:14:09.407Z,17.98
2023-05-09T13:16:36.121Z,18.00
2023-05-09T13:19:05.776Z,18.24
2023-05-09T13:21:35.185Z,18.58
2023-05-09T13:24:05.208Z,18.90
2023-05-09T13:26:34.328Z,18.97
2023-05-09T13:29:03.346Z,19.52
2023-05-09T13:31:33.146Z,19.51
2023-05-09T13:33:59.965Z,19.65
2023-05-09T13:36:26.799Z,18.97
2023-05-09T13:38:56.903Z,18.90
2023-05-09T13:41:24.092Z,18.54
2023-05-09T13:43:56.043Z,18.40
2023-05-09T13:46:22.662Z,18.28
2023-05-09T13:48:55.277Z,18.04
2023-05-09T13:51:22.654Z,18.01
2023-05-09T13:53:51.659Z,17.83
2023-05-09T13:56:20.807Z,17.57
2023-05-09T13:58:47.412Z,17.71
2023-05-09T14:01:16.320Z,17.43
2023-05-09T14:03:43.068Z,17.34
2023-05-09T14:06:10.486Z,17.27
2023-05-09T14:08:37.271Z,17.23
2023-05-09T14:11:07.533Z,17.27
2023-05-09T14:13:39.390Z,17.30
2023-05-09T14:16:09.577Z,17.34
2023-05-09T14:18:36.194Z,17.17
2023-05-09T14:21:05.545Z,17.53
2023-05-09T14:23:32.196Z,17.48
2023-05-09T14:26:02.442Z,17.40
2023-05-09T14:28:31.618Z,17.59
2023-05-09T14:31:00.712Z,17.69
2023-05-09T14:33:29.810Z,17.96
2023-05-09T14:35:56.675Z,18.18
2023-05-09T14:38:23.287Z,18.32
2023-05-09T14:40:52.520Z,18.55
2023-05-09T14:43:22.305Z,18.57
2023-05-09T14:45:48.903Z,18.26
2023-05-09T14:48:16.273Z,17.90
2023-05-09T14:50:43.157Z,17.90
2023-05-09T14:53:13.308Z,17.89
2023-05-09T14:58:34.309Z,17.62
2023-05-09T15:01:01.525Z,17.54
2023-05-09T15:03:32.351Z,17.33
2023-05-09T15:05:59.248Z,17.43
2023-05-09T15:09:13.500Z,17.47
2023-05-09T15:11:47.425Z,17.54
2023-05-09T15:14:16.687Z,18.04
2023-05-09T15:16:43.710Z,18.25
2023-05-09T15:19:12.985Z,18.94
2023-05-09T15:21:42.607Z,19.27
2023-05-09T15:24:14.422Z,19.68
2023-05-09T15:26:43.608Z,19.23
2023-05-09T15:29:10.447Z,19.42
2023-05-09T15:31:39.450Z,19.81
2023-05-09T15:34:06.134Z,19.59
2023-05-09T15:36:34.987Z,20.26
2023-05-09T15:39:01.593Z,20.84
2023-05-09T15:41:33.338Z,19.70
2023-05-09T15:43:59.954Z,19.03
2023-05-09T15:46:33.246Z,18.80
2023-05-09T15:48:59.940Z,18.35
2023-05-09T15:51:29.784Z,17.83
2023-05-09T15:53:56.413Z,17.73
2023-05-09T15:56:22.999Z,17.76
2023-05-09T15:58:49.570Z,18.18
2023-05-09T16:01:16.240Z,18.48
2023-05-09T16:03:43.284Z,18.86
2023-05-09T16:06:12.966Z,19.61
2023-05-09T16:08:39.678Z,19.45
2023-05-09T16:11:06.416Z,18.87
2023-05-09T16:13:35.048Z,18.68
2023-05-09T16:16:02.625Z,19.34
2023-05-09T16:18:29.236Z,18.99
2023-05-09T16:20:56.062Z,18.55
2023-05-09T16:23:26.045Z,18.15
2023-05-09T16:25:52.668Z,18.00
2023-05-09T16:28:23.540Z,17.72
2023-05-09T16:30:51.523Z,17.24
2023-05-09T16:33:18.682Z,17.03
2023-05-09T16:35:45.305Z,16.98
2023-05-09T16:38:13.093Z,16.73
2023-05-09T16:40:40.053Z,16.67
2023-05-09T16:43:09.158Z,16.60
2023-05-09T16:45:35.828Z,16.54
2023-05-09T16:48:02.720Z,16.58
2023-05-09T16:50:31.692Z,16.47
2023-05-09T16:52:58.228Z,16.51
2023-05-09T16:55:27.141Z,16.20
2023-05-09T16:57:53.726Z,16.30
2023-05-09T17:00:20.874Z,16.27
2023-05-09T17:02:47.545Z,16.36
2023-05-09T17:05:16.460Z,16.41
2023-05-09T17:07:42.916Z,16.48
2023-05-09T17:10:14.953Z,16.43
2023-05-09T17:12:44.109Z,16.19
2023-05-09T17:15:11.961Z,16.32
2023-05-09T17:17:38.680Z,16.17
2023-05-09T17:20:11.305Z,16.16
2023-05-09T17:22:38.099Z,16.21
2023-05-09T17:25:07.685Z,16.11
2023-05-09T17:27:36.915Z,16.00
2023-05-09T17:30:04.169Z,16.01
2023-05-09T17:32:30.893Z,15.95
2023-05-09T17:35:00.560Z,15.90
2023-05-09T17:37:27.383Z,16.05
2023-05-09T17:39:56.509Z,15.91
2023-05-09T17:42:26.002Z,15.78
2023-05-09T17:44:53.266Z,15.68
2023-05-09T17:47:22.204Z,15.78
2023-05-09T17:49:52.415Z,15.76
2023-05-09T17:52:19.197Z,15.66
2023-05-09T17:54:45.963Z,15.61
2023-05-09T17:57:15.181Z,15.77
2023-05-09T17:59:45.695Z,15.58
2023-05-09T18:02:13.679Z,15.77
2023-05-09T18:04:40.560Z,15.60
2023-05-09T18:07:08.551Z,15.58
2023-05-09T18:09:37.436Z,15.65
2023-05-09T18:12:06.752Z,15.69
2023-05-09T18:14:35.882Z,15.60
2023-05-09T18:17:02.489Z,15.58
2023-05-09T18:19:29.308Z,15.30
2023-05-09T18:21:55.938Z,15.29
2023-05-09T18:24:23.246Z,14.94
2023-05-09T18:26:52.455Z,14.98
2023-05-09T18:29:24.386Z,14.90
2023-05-09T18:31:53.747Z,14.86
2023-05-09T18:34:20.612Z,14.85
2023-05-09T18:36:47.509Z,15.04
2023-05-09T18:39:16.760Z,15.06
2023-05-09T18:41:48.209Z,14.73
2023-05-09T18:44:14.807Z,14.44
2023-05-09T18:46:44.390Z,14.16
2023-05-09T18:49:11.417Z,14.51
2023-05-09T18:51:40.489Z,14.58
2023-05-09T18:54:08.406Z,14.70
2023-05-09T18:56:39.437Z,14.54
2023-05-09T18:59:07.558Z,14.36
2023-05-09T19:01:34.185Z,14.32
2023-05-09T19:04:02.164Z,14.34
2023-05-09T19:06:29.141Z,14.28
2023-05-09T19:08:58.233Z,14.02
2023-05-09T19:11:28.264Z,14.24
2023-05-09T19:13:55.075Z,14.27
2023-05-09T19:16:23.768Z,14.42
2023-05-09T19:18:52.773Z,14.48
2023-05-09T19:21:21.575Z,14.43
2023-05-09T19:23:49.185Z,14.29
2023-05-09T19:26:18.377Z,14.23
2023-05-09T19:28:48.105Z,14.26
2023-05-09T19:31:18.807Z,14.27
2023-05-09T19:33:50.217Z,14.25
2023-05-09T19:36:18.104Z,14.15
2023-05-09T19:38:47.113Z,14.18
2023-05-09T19:41:14.007Z,14.16
2023-05-09T19:43:42.925Z,13.88
2023-05-09T19:46:09.962Z,13.63
2023-05-09T19:48:36.777Z,13.62
2023-05-09T19:51:08.786Z,13.47
2023-05-09T19:53:35.662Z,13.42
2023-05-09T19:56:02.520Z,13.29
2023-05-09T19:58:31.326Z,13.18
2023-05-09T20:01:00.396Z,13.41
2023-05-09T20:03:27.108Z,13.37
2023-05-09T20:05:58.655Z,13.33
2023-05-09T20:08:28.051Z,13.26
2023-05-09T20:11:00.433Z,13.27
2023-05-09T20:13:27.768Z,13.31
2023-05-09T20:15:57.577Z,13.45
2023-05-09T20:18:26.932Z,13.65
2023-05-09T20:20:54.778Z,13.64
2023-05-09T20:23:27.573Z,13.44
2023-05-09T20:25:59.100Z,13.57
2023-05-09T20:28:25.777Z,13.57
2023-05-09T20:30:52.405Z,13.67
2023-05-09T20:33:19.204Z,13.49
2023-05-09T20:35:45.987Z,13.15
2023-05-09T20:38:15.056Z,13.21
2023-05-09T20:40:42.915Z,13.22
2023-05-09T20:43:09.831Z,13.16
2023-05-09T20:45:38.830Z,13.27
2023-05-09T20:48:06.785Z,13.29
2023-05-09T20:50:33.912Z,13.36
2023-05-09T20:53:02.787Z,13.12
2023-05-09T20:55:29.336Z,13.16
2023-05-09T20:57:56.440Z,13.10
2023-05-09T21:00:25.544Z,12.92
2023-05-09T21:02:56.208Z,12.89
2023-05-09T21:05:24.882Z,12.85
2023-05-09T21:07:53.832Z,12.98
2023-05-09T21:10:22.928Z,12.98
2023-05-09T21:12:49.374Z,12.81
2023-05-09T21:15:18.241Z,12.74
2023-05-09T21:17:47.248Z,12.33
2023-05-09T21:20:16.567Z,12.63
2023-05-09T21:22:43.477Z,12.62
2023-05-09T21:25:12.531Z,12.84
2023-05-09T21:27:39.016Z,13.02
2023-05-09T21:30:08.604Z,13.08
2023-05-09T21:32:35.251Z,12.86
2023-05-09T21:35:04.660Z,12.85
2023-05-09T21:37:33.869Z,12.90
2023-05-09T21:40:00.670Z,13.05
2023-05-09T21:42:32.217Z,12.94
2023-05-09T21:44:58.775Z,12.85
2023-05-09T21:47:25.670Z,12.86
2023-05-09T21:49:53.453Z,12.95
2023-05-09T21:52:20.052Z,12.98
2023-05-09T21:54:49.558Z,12.88
2023-05-09T21:57:18.450Z,13.07
2023-05-09T21:59:47.532Z,12.96
2023-05-09T22:02:14.486Z,13.13
2023-05-09T22:04:41.060Z,13.15
2023-05-09T22:07:08.204Z,13.11
2023-05-09T22:09:38.046Z,13.12
2023-05-09T22:12:04.718Z,13.20
2023-05-09T22:14:33.494Z,12.95
2023-05-09T22:17:01.755Z,13.09
2023-05-09T22:19:28.470Z,13.07
2023-05-09T22:21:55.062Z,12.98
2023-05-09T22:24:21.817Z,13.03
2023-05-09T22:26:48.374Z,13.00
2023-05-09T22:29:16.684Z,13.03
2023-05-09T22:31:44.546Z,13.14
2023-05-09T22:34:13.429Z,13.09
2023-05-09T22:36:40.062Z,13.02
2023-05-09T22:39:06.780Z,12.96
2023-05-09T22:41:33.351Z,12.98
2023-05-09T22:44:02.332Z,12.98
2023-05-09T22:46:31.320Z,13.04
2023-05-09T22:49:02.464Z,12.98
2023-05-09T22:51:32.479Z,13.03
2023-05-09T22:54:01.568Z,12.92
2023-05-09T22:56:28.131Z,12.88
2023-05-09T22:58:54.746Z,12.70
2023-05-09T23:01:23.636Z,12.82
2023-05-09T23:03:50.735Z,12.89
2023-05-09T23:09:39.270Z,12.86
2023-05-09T23:12:10.332Z,13.01
2023-05-09T23:14:39.847Z,12.98
2023-05-09T23:17:08.880Z,12.95
2023-05-09T23:19:35.322Z,12.55
2023-05-09T23:22:04.595Z,12.67
2023-05-09T23:24:33.623Z,12.77
2023-05-09T23:27:00.138Z,12.93
2023-05-09T23:29:29.026Z,12.92
2023-05-09T23:31:55.709Z,12.55
2023-05-09T23:34:25.207Z,12.32
2023-05-09T23:36:56.519Z,12.34
2023-05-09T23:39:25.536Z,12.67
2023-05-09T23:41:54.888Z,12.62
2023-05-09T23:44:21.530Z,12.21
2023-05-09T23:46:50.573Z,12.43
2023-05-09T23:49:19.584Z,12.59
2023-05-09T23:51:48.386Z,12.64
2023-05-09T23:54:17.371Z,12.83
2023-05-09T23:56:48.753Z,12.58
2023-05-09T23:59:15.453Z,12.66
